Flight Track Log - Related Links

Times and Time Zones

All times are in EDT time to prevent confusion due to time zone crossing. See the N328DA flight status page for this flight to view local times or setup timezone preferences in your user account.


Time Position Orientation Groundspeed Altitude Reporting Facility
EDT Latitude Longitude Course Direction KTS MPH feet Rate Location/Type
Mon 12:31:38 PM 37.4000 -121.9667 146° Southeast 168 193 3,600  Level Northern Cal TRACON
Mon 12:36:21 PM 37.3317 -121.9086 341° North 266 306 12,400 1,714 Climbing Oakland Center
Mon 12:37:21 PM 37.4106 -121.9436 26° Northeast 334 384 13,400 1,350 Climbing Oakland Center
Mon 12:38:21 PM 37.5006 -121.8872 28° Northeast 345 397 15,100 1,650 Climbing Oakland Center
Mon 12:39:21 PM 37.5783 -121.8356 42° Northeast 361 415 16,700 1,650 Climbing Oakland Center
Mon 12:40:21 PM 37.6478 -121.7553 53° Northeast 349 402 18,400 1,350 Climbing Oakland Center
Mon 12:41:21 PM 37.7044 -121.6586 55° Northeast 335 386 19,400 942 Climbing Oakland Center
Mon 12:42:22 PM 37.7614 -121.5567 55° Northeast 340 391 20,300 1,150 Climbing Oakland Center
Mon 12:43:21 PM 37.8244 -121.4417 55° Northeast 351 404 21,700 1,109 Climbing Oakland Center
Mon 12:44:21 PM 37.8811 -121.3392 67° East 351 404 22,500 900 Climbing Oakland Center
Mon 12:45:21 PM 37.9211 -121.2183 78° East 351 404 23,500 1,050 Climbing Oakland Center
Mon 12:46:21 PM 37.9422 -121.0919 78° East 351 404 24,600 750 Climbing Oakland Center
Mon 12:47:21 PM 37.9631 -120.9656 77° East 358 412 25,000 200 Climbing Oakland Center
Mon 12:48:21 PM 37.9819 -120.8628 78° East 358 412 25,000  Level Oakland Center
Mon 12:49:21 PM 38.0067 -120.7100 78° East 367 422 25,000  Level Oakland Center
Mon 12:50:21 PM 38.0292 -120.5781 78° East 377 434 25,000  Level Oakland Center
Mon 12:51:21 PM 38.0517 -120.4486 79° East 372 428 25,000  Level Oakland Center
Mon 12:52:21 PM 38.0719 -120.3192 78° East 372 428 25,000  Level Oakland Center
Mon 12:53:21 PM 38.0939 -120.1869 78° East 372 428 25,000  Level Oakland Center
Mon 12:54:21 PM 38.1158 -120.0575 78° East 372 428 25,000  Level Oakland Center
Mon 12:55:21 PM 38.1378 -119.9278 79° East 372 428 25,000  Level Oakland Center
Mon 12:56:21 PM 38.1575 -119.7956 78° East 372 428 25,000  Level Oakland Center
Mon 12:57:21 PM 38.1789 -119.6683 79° East 372 428 25,000  Level Oakland Center
Mon 12:58:22 PM 38.1983 -119.5358 81° East 372 428 25,000  Level Oakland Center
Mon 12:59:21 PM 38.2117 -119.4272 79° East 362 417 25,000  Level Oakland Center
Mon 01:00:21 PM 38.2306 -119.2972 78° East 354 407 25,000  Level Oakland Center
Mon 01:01:21 PM 38.2517 -119.1672 79° East 359 413 25,000 250 Level Oakland Center
Mon 01:02:21 PM 38.2706 -119.0397 79° East 364 419 25,500 750 Climbing Oakland Center
Mon 01:03:21 PM 38.2892 -118.9150 79° East 364 419 26,500 750 Climbing Oakland Center
Mon 01:04:21 PM 38.3078 -118.7900 79° East 364 419 27,000 250 Climbing Oakland Center
Mon 01:05:21 PM 38.3264 -118.6650 80° East 358 412 27,000  Level Oakland Center
Mon 01:06:21 PM 38.3444 -118.5347 79° East 358 412 27,000  Level Oakland Center
Mon 01:07:21 PM 38.3628 -118.4094 82° East 358 412 27,000  Level Oakland Center
Mon 01:08:21 PM 38.3767 -118.2819 82° East 358 412 27,000  Level Oakland Center
Mon 01:09:21 PM 38.3903 -118.1542 80° East 358 412 27,000  Level Oakland Center
Mon 01:10:21 PM 38.4097 -118.0183 83° East 353 406 27,000  Level Oakland Center
Mon 01:11:21 PM 38.4211 -117.8906 82° East 353 406 27,000  Level Oakland Center
Mon 01:12:41 PM 38.4386 -117.7322 82° East 362 417 27,000  Level Salt Lake Center
Mon 01:13:43 PM 38.4519 -117.6044 82° East 362 417 27,000  Level Salt Lake Center
Mon 01:14:46 PM 38.4658 -117.4750 82° East 365 420 27,000  Level Salt Lake Center
Mon 01:15:48 PM 38.4794 -117.3456 82° East 365 420 27,000  Level Salt Lake Center
Mon 01:16:50 PM 38.4958 -117.1906 83° East 364 419 27,000  Level Salt Lake Center
Mon 01:17:52 PM 38.5089 -117.0617 82° East 364 419 27,000  Level Salt Lake Center
Mon 01:18:54 PM 38.5228 -116.9331 83° East 363 418 27,000  Level Salt Lake Center
Mon 01:19:56 PM 38.5350 -116.8069 83° East 359 413 27,000  Level Salt Lake Center
Mon 01:20:58 PM 38.5481 -116.6789 83° East 361 415 27,000  Level Salt Lake Center
Mon 01:22:00 PM 38.5597 -116.5525 83° East 359 413 27,000  Level Salt Lake Center
Mon 01:23:02 PM 38.5722 -116.4278 83° East 356 410 27,000  Level Salt Lake Center
Mon 01:24:04 PM 38.5867 -116.2778 83° East 354 407 27,000  Level Salt Lake Center
Mon 01:25:06 PM 38.5986 -116.1519 83° East 355 409 27,000  Level Salt Lake Center
Mon 01:26:08 PM 38.6100 -116.0286 83° East 353 406 27,000  Level Salt Lake Center
Mon 01:27:10 PM 38.6211 -115.9067 83° East 347 399 27,000  Level Salt Lake Center
Mon 01:28:12 PM 38.6319 -115.7881 83° East 340 391 27,000  Level Salt Lake Center
Mon 01:29:15 PM 38.6428 -115.6711 83° East 335 386 27,000  Level Salt Lake Center
Mon 01:30:17 PM 38.6533 -115.5525 84° East 334 384 27,000  Level Salt Lake Center
Mon 01:31:19 PM 38.6656 -115.4106 84° East 335 386 27,000  Level Salt Lake Center
Mon 01:32:21 PM 38.6750 -115.2964 84° East 336 387 27,000  Level Salt Lake Center
Mon 01:33:23 PM 38.6856 -115.1722 83° East 341 392 27,000  Level Salt Lake Center
Mon 01:34:25 PM 38.6969 -115.0472 83° East 345 397 27,000  Level Salt Lake Center
Mon 01:35:27 PM 38.7081 -114.9236 83° East 345 397 27,000  Level Salt Lake Center
Mon 01:36:29 PM 38.7189 -114.8028 83° East 342 394 27,000  Level Salt Lake Center
Mon 01:37:31 PM 38.7297 -114.6828 80° East 338 389 27,000  Level Salt Lake Center
Mon 01:38:33 PM 38.7456 -114.5631 80° East 335 386 27,000  Level Salt Lake Center
Mon 01:39:36 PM 38.7656 -114.4186 78° East 335 386 27,000  Level Salt Lake Center
Mon 01:40:38 PM 38.7861 -114.2978 83° East 338 389 27,000  Level Salt Lake Center
Mon 01:41:40 PM 38.7975 -114.1694 85° East 352 405 27,000  Level Salt Lake Center
Mon 01:42:42 PM 38.8069 -114.0403 85° East 358 412 27,000  Level Salt Lake Center
Mon 01:43:44 PM 38.8153 -113.9122 85° East 356 410 27,000  Level Salt Lake Center
Mon 01:44:46 PM 38.8244 -113.7822 85° East 358 412 27,000  Level Salt Lake Center
Mon 01:45:49 PM 38.8331 -113.6525 85° East 358 412 27,000  Level Salt Lake Center
Mon 01:46:51 PM 38.8419 -113.5181 85° East 367 422 27,000  Level Salt Lake Center
Mon 01:47:53 PM 38.8506 -113.3839 85° East 370 426 27,000  Level Salt Lake Center
Mon 01:48:55 PM 38.8592 -113.2492 85° East 371 427 27,000  Level Salt Lake Center
Mon 01:49:57 PM 38.8681 -113.1167 85° East 369 425 27,000  Level Salt Lake Center
Mon 01:51:00 PM 38.8778 -112.9594 86° East 365 420 27,000  Level Salt Lake Center
Mon 01:52:02 PM 38.8858 -112.8258 86° East 367 422 27,000  Level Salt Lake Center
Mon 01:53:04 PM 38.8939 -112.6925 85° East 368 423 27,000  Level Salt Lake Center
Mon 01:54:06 PM 38.9019 -112.5603 86° East 366 421 27,000  Level Salt Lake Center
Mon 01:55:08 PM 38.9097 -112.4281 87° East 366 421 27,000 432 Level Salt Lake Center
Mon 01:56:11 PM 38.9156 -112.2986 86° East 361 415 27,900 912 Climbing Salt Lake Center
Mon 01:57:13 PM 38.9228 -112.1700 86° East 357 411 28,900 532 Climbing Salt Lake Center
Mon 01:58:15 PM 38.9306 -112.0383 86° East 362 417 29,000 48 Climbing Salt Lake Center
Mon 01:59:18 PM 38.9383 -111.9022 87° East 371 427 29,000  Level Salt Lake Center
Mon 02:00:20 PM 38.9447 -111.7631 86° East 378 435 29,000  Level Salt Lake Center
Mon 02:01:22 PM 38.9519 -111.6228 86° East 385 443 29,000  Level Salt Lake Center
Mon 02:02:25 PM 38.9606 -111.4569 87° East 383 441 29,000  Level Salt Lake Center
Mon 02:03:27 PM 38.9669 -111.3203 87° East 380 437 29,000  Level Salt Lake Center
Mon 02:04:29 PM 38.9731 -111.1836 87° East 379 436 29,000  Level Salt Lake Center
Mon 02:05:31 PM 38.9778 -111.0450 87° East 376 433 29,000  Level Salt Lake Center
Mon 02:06:34 PM 38.9831 -110.9164 87° East 377 434 29,000  Level Salt Lake Center
Mon 02:07:36 PM 38.9894 -110.7664 86° East 377 434 29,000  Level Salt Lake Center
Mon 02:08:38 PM 38.9956 -110.6378 86° East 377 434 29,000 -480 Level Salt Lake Center
Mon 02:09:41 PM 39.0033 -110.4944 88° East 366 421 28,000 -919 Descending Salt Lake Center
Mon 02:10:42 PM 39.0061 -110.3936 87° East 359 413 27,100 -1,113 Descending Salt Lake Center
Mon 02:11:45 PM 39.0131 -110.2300 88° East 360 414 25,700 -1,190 Descending Salt Lake Center
Mon 02:12:48 PM 39.0172 -110.1033 87° East 367 422 24,600 -1,104 Descending Salt Lake Center
Mon 02:13:50 PM 39.0231 -109.9564 88° East 369 425 23,400 -1,113 Descending Salt Lake Center
Mon 02:14:52 PM 39.0272 -109.8264 88° East 376 433 22,300 -1,104 Descending Salt Lake Center
Mon 02:15:55 PM 39.0322 -109.6694 88° East 389 448 21,100 -1,056 Descending Salt Lake Center
Mon 02:16:57 PM 39.0356 -109.5367 87° East 391 450 20,100 -1,500 Descending Salt Lake Center
Mon 02:17:59 PM 39.0408 -109.3869 88° East 384 442 18,000 -1,872 Descending Salt Lake Center
Mon 02:19:02 PM 39.0444 -109.2628 88° East 375 432 16,200 -1,968 Descending Salt Lake Center
Mon 02:20:04 PM 39.0483 -109.1211 87° East 365 420 13,900 -1,984 Descending Salt Lake Center
Mon 02:21:06 PM 39.0528 -109.0028 88° East 357 411 12,100 -1,839 Descending Salt Lake Center
Mon 02:22:08 PM 39.0567 -108.8700 88° East 346 398 10,100 -1,228 Descending Salt Lake Center
Mon 02:23:13 PM 39.0594 -108.7728 88° East 272 313 9,500 -528 Descending Denver Center
Mon 02:24:13 PM 39.0611 -108.6925 93° East 235 270 9,000 -200 Descending Denver Center
Mon 02:25:13 PM 39.0583 -108.6231 93° East 218 251 9,100 100 Climbing Denver Center

Login

Don't have an account? Register now (free) for customized features, flight alerts, and more!